sensor_id;sensor_type;location;lat;lon;timestamp;P1;durP1;ratioP1;P2;durP2;ratioP2
39140;SDS011;24875;48.436;10.298;2022-08-11T00:01:36;3.60;;;2.10;;
39140;SDS011;24875;48.436;10.298;2022-08-11T00:04:08;4.30;;;2.17;;
39140;SDS011;24875;48.436;10.298;2022-08-11T00:06:37;3.75;;;2.40;;
39140;SDS011;24875;48.436;10.298;2022-08-11T00:09:06;2.47;;;1.83;;
39140;SDS011;24875;48.436;10.298;2022-08-11T00:11:36;3.08;;;2.25;;
39140;SDS011;24875;48.436;10.298;2022-08-11T00:14:12;4.75;;;2.42;;
39140;SDS011;24875;48.436;10.298;2022-08-11T00:16:40;2.95;;;2.35;;
39140;SDS011;24875;48.436;10.298;2022-08-11T00:19:09;4.28;;;2.35;;
39140;SDS011;24875;48.436;10.298;2022-08-11T00:21:39;3.58;;;2.42;;
39140;SDS011;24875;48.436;10.298;2022-08-11T00:24:08;3.22;;;2.47;;
39140;SDS011;24875;48.436;10.298;2022-08-11T00:26:35;4.35;;;2.10;;
39140;SDS011;24875;48.436;10.298;2022-08-11T00:29:08;5.35;;;2.38;;
39140;SDS011;24875;48.436;10.298;2022-08-11T00:31:35;2.65;;;2.10;;
39140;SDS011;24875;48.436;10.298;2022-08-11T00:34:04;3.38;;;2.13;;
39140;SDS011;24875;48.436;10.298;2022-08-11T00:36:37;5.93;;;1.98;;
39140;SDS011;24875;48.436;10.298;2022-08-11T00:39:07;2.72;;;1.90;;
39140;SDS011;24875;48.436;10.298;2022-08-11T00:41:38;3.58;;;2.20;;
39140;SDS011;24875;48.436;10.298;2022-08-11T00:44:18;5.18;;;2.40;;
39140;SDS011;24875;48.436;10.298;2022-08-11T00:46:58;3.05;;;2.40;;
39140;SDS011;24875;48.436;10.298;2022-08-11T00:49:38;5.95;;;2.45;;
39140;SDS011;24875;48.436;10.298;2022-08-11T00:52:15;4.10;;;2.15;;
39140;SDS011;24875;48.436;10.298;2022-08-11T00:55:02;4.13;;;2.28;;
39140;SDS011;24875;48.436;10.298;2022-08-11T01:01:07;2.95;;;2.20;;
39140;SDS011;24875;48.436;10.298;2022-08-11T01:03:43;5.57;;;2.80;;
39140;SDS011;24875;48.436;10.298;2022-08-11T01:06:30;5.10;;;2.17;;
39140;SDS011;24875;48.436;10.298;2022-08-11T01:09:19;4.80;;;2.55;;
39140;SDS011;24875;48.436;10.298;2022-08-11T01:12:00;4.20;;;2.53;;
39140;SDS011;24875;48.436;10.298;2022-08-11T01:17:54;3.35;;;2.38;;
39140;SDS011;24875;48.436;10.298;2022-08-11T01:23:48;2.42;;;2.17;;
39140;SDS011;24875;48.436;10.298;2022-08-11T01:35:50;3.60;;;2.45;;
39140;SDS011;24875;48.436;10.298;2022-08-11T01:45:16;6.07;;;2.67;;
39140;SDS011;24875;48.436;10.298;2022-08-11T01:47:55;4.40;;;2.40;;
39140;SDS011;24875;48.436;10.298;2022-08-11T01:50:34;4.72;;;2.40;;
39140;SDS011;24875;48.436;10.298;2022-08-11T01:53:14;3.92;;;2.70;;
39140;SDS011;24875;48.436;10.298;2022-08-11T01:55:51;7.63;;;2.63;;
39140;SDS011;24875;48.436;10.298;2022-08-11T01:58:28;4.30;;;2.83;;
39140;SDS011;24875;48.436;10.298;2022-08-11T02:01:04;6.03;;;2.63;;
39140;SDS011;24875;48.436;10.298;2022-08-11T02:03:42;4.18;;;2.55;;
39140;SDS011;24875;48.436;10.298;2022-08-11T02:06:21;3.58;;;2.42;;
39140;SDS011;24875;48.436;10.298;2022-08-11T02:09:17;4.18;;;2.53;;
39140;SDS011;24875;48.436;10.298;2022-08-11T02:11:57;3.85;;;2.95;;
39140;SDS011;24875;48.436;10.298;2022-08-11T02:14:29;4.15;;;2.75;;
39140;SDS011;24875;48.436;10.298;2022-08-11T02:17:04;3.60;;;2.65;;
39140;SDS011;24875;48.436;10.298;2022-08-11T02:19:41;4.15;;;2.65;;
39140;SDS011;24875;48.436;10.298;2022-08-11T02:22:35;4.47;;;2.85;;
39140;SDS011;24875;48.436;10.298;2022-08-11T02:25:28;6.57;;;2.47;;
39140;SDS011;24875;48.436;10.298;2022-08-11T02:28:01;3.60;;;2.75;;
39140;SDS011;24875;48.436;10.298;2022-08-11T02:30:34;3.72;;;2.78;;
39140;SDS011;24875;48.436;10.298;2022-08-11T02:33:07;3.45;;;2.85;;
39140;SDS011;24875;48.436;10.298;2022-08-11T02:35:50;8.88;;;3.03;;
39140;SDS011;24875;48.436;10.298;2022-08-11T02:38:24;4.35;;;2.80;;
39140;SDS011;24875;48.436;10.298;2022-08-11T02:40:59;4.80;;;2.90;;
39140;SDS011;24875;48.436;10.298;2022-08-11T02:43:34;5.03;;;3.08;;
39140;SDS011;24875;48.436;10.298;2022-08-11T02:46:18;4.13;;;3.00;;
39140;SDS011;24875;48.436;10.298;2022-08-11T02:48:55;4.35;;;2.90;;
39140;SDS011;24875;48.436;10.298;2022-08-11T02:51:47;5.32;;;2.88;;
39140;SDS011;24875;48.436;10.298;2022-08-11T02:54:26;4.85;;;3.17;;
39140;SDS011;24875;48.436;10.298;2022-08-11T02:56:58;5.47;;;3.17;;
39140;SDS011;24875;48.436;10.298;2022-08-11T02:59:36;6.95;;;3.10;;
39140;SDS011;24875;48.436;10.298;2022-08-11T03:02:19;4.20;;;2.90;;
39140;SDS011;24875;48.436;10.298;2022-08-11T03:05:02;5.68;;;2.97;;
39140;SDS011;24875;48.436;10.298;2022-08-11T03:07:40;4.13;;;3.13;;
39140;SDS011;24875;48.436;10.298;2022-08-11T03:10:17;4.57;;;3.40;;
39140;SDS011;24875;48.436;10.298;2022-08-11T03:12:48;6.13;;;3.78;;
39140;SDS011;24875;48.436;10.298;2022-08-11T03:15:40;5.90;;;3.33;;
39140;SDS011;24875;48.436;10.298;2022-08-11T03:18:32;5.25;;;3.38;;
39140;SDS011;24875;48.436;10.298;2022-08-11T03:21:06;5.03;;;3.70;;
39140;SDS011;24875;48.436;10.298;2022-08-11T03:23:40;5.18;;;3.80;;
39140;SDS011;24875;48.436;10.298;2022-08-11T03:26:21;5.88;;;3.78;;
39140;SDS011;24875;48.436;10.298;2022-08-11T03:28:56;6.13;;;3.45;;
39140;SDS011;24875;48.436;10.298;2022-08-11T03:31:31;5.15;;;3.53;;
39140;SDS011;24875;48.436;10.298;2022-08-11T03:34:02;5.30;;;3.60;;
39140;SDS011;24875;48.436;10.298;2022-08-11T03:39:39;5.13;;;3.00;;
39140;SDS011;24875;48.436;10.298;2022-08-11T03:42:22;4.30;;;3.08;;
39140;SDS011;24875;48.436;10.298;2022-08-11T03:45:00;4.90;;;3.35;;
39140;SDS011;24875;48.436;10.298;2022-08-11T03:47:42;5.80;;;3.67;;
39140;SDS011;24875;48.436;10.298;2022-08-11T03:50:17;7.70;;;3.38;;
39140;SDS011;24875;48.436;10.298;2022-08-11T03:52:52;7.20;;;3.80;;
39140;SDS011;24875;48.436;10.298;2022-08-11T03:55:32;4.45;;;3.15;;
39140;SDS011;24875;48.436;10.298;2022-08-11T03:58:30;5.70;;;3.58;;
39140;SDS011;24875;48.436;10.298;2022-08-11T04:01:36;6.25;;;3.00;;
39140;SDS011;24875;48.436;10.298;2022-08-11T04:07:34;6.43;;;3.58;;
39140;SDS011;24875;48.436;10.298;2022-08-11T04:10:30;6.07;;;4.05;;
39140;SDS011;24875;48.436;10.298;2022-08-11T04:16:53;13.00;;;3.63;;
39140;SDS011;24875;48.436;10.298;2022-08-11T04:19:50;6.28;;;3.60;;
39140;SDS011;24875;48.436;10.298;2022-08-11T04:22:40;13.80;;;4.10;;
39140;SDS011;24875;48.436;10.298;2022-08-11T04:25:29;10.40;;;3.72;;
39140;SDS011;24875;48.436;10.298;2022-08-11T04:28:33;5.45;;;3.25;;
39140;SDS011;24875;48.436;10.298;2022-08-11T04:31:20;11.05;;;3.20;;
39140;SDS011;24875;48.436;10.298;2022-08-11T04:34:07;4.70;;;3.40;;
39140;SDS011;24875;48.436;10.298;2022-08-11T04:36:57;5.50;;;3.30;;
39140;SDS011;24875;48.436;10.298;2022-08-11T04:40:00;6.95;;;3.60;;
39140;SDS011;24875;48.436;10.298;2022-08-11T04:52:15;5.28;;;3.58;;
39140;SDS011;24875;48.436;10.298;2022-08-11T04:55:19;13.57;;;3.60;;
39140;SDS011;24875;48.436;10.298;2022-08-11T04:58:16;7.30;;;3.80;;
39140;SDS011;24875;48.436;10.298;2022-08-11T05:01:07;5.97;;;3.63;;
39140;SDS011;24875;48.436;10.298;2022-08-11T05:07:41;5.90;;;3.45;;
39140;SDS011;24875;48.436;10.298;2022-08-11T05:10:45;9.13;;;4.40;;
39140;SDS011;24875;48.436;10.298;2022-08-11T05:13:23;7.10;;;3.78;;
39140;SDS011;24875;48.436;10.298;2022-08-11T05:16:12;7.40;;;3.47;;
39140;SDS011;24875;48.436;10.298;2022-08-11T05:19:00;5.00;;;3.22;;
39140;SDS011;24875;48.436;10.298;2022-08-11T05:21:47;4.38;;;3.40;;
39140;SDS011;24875;48.436;10.298;2022-08-11T05:24:36;6.03;;;3.55;;
39140;SDS011;24875;48.436;10.298;2022-08-11T05:27:28;5.50;;;3.53;;
39140;SDS011;24875;48.436;10.298;2022-08-11T05:30:16;4.30;;;3.10;;
39140;SDS011;24875;48.436;10.298;2022-08-11T05:33:01;6.75;;;3.78;;
39140;SDS011;24875;48.436;10.298;2022-08-11T05:35:49;6.50;;;3.45;;
39140;SDS011;24875;48.436;10.298;2022-08-11T05:38:27;6.25;;;3.97;;
39140;SDS011;24875;48.436;10.298;2022-08-11T05:41:17;5.97;;;3.75;;
39140;SDS011;24875;48.436;10.298;2022-08-11T05:44:03;5.95;;;3.72;;
39140;SDS011;24875;48.436;10.298;2022-08-11T05:46:48;7.28;;;2.85;;
39140;SDS011;24875;48.436;10.298;2022-08-11T05:49:32;6.97;;;3.45;;
39140;SDS011;24875;48.436;10.298;2022-08-11T05:52:19;5.40;;;3.13;;
39140;SDS011;24875;48.436;10.298;2022-08-11T05:55:07;4.80;;;3.20;;
39140;SDS011;24875;48.436;10.298;2022-08-11T05:57:54;5.35;;;3.33;;
39140;SDS011;24875;48.436;10.298;2022-08-11T06:00:21;7.68;;;3.60;;
39140;SDS011;24875;48.436;10.298;2022-08-11T06:02:49;5.20;;;3.20;;
39140;SDS011;24875;48.436;10.298;2022-08-11T06:05:19;8.85;;;3.30;;
39140;SDS011;24875;48.436;10.298;2022-08-11T06:07:46;11.57;;;3.20;;
39140;SDS011;24875;48.436;10.298;2022-08-11T06:10:16;4.68;;;3.35;;
39140;SDS011;24875;48.436;10.298;2022-08-11T06:12:51;10.02;;;3.55;;
39140;SDS011;24875;48.436;10.298;2022-08-11T06:15:19;4.03;;;3.00;;
39140;SDS011;24875;48.436;10.298;2022-08-11T06:17:46;9.02;;;3.85;;
39140;SDS011;24875;48.436;10.298;2022-08-11T06:20:15;4.90;;;3.60;;
39140;SDS011;24875;48.436;10.298;2022-08-11T06:22:44;4.63;;;3.33;;
39140;SDS011;24875;48.436;10.298;2022-08-11T06:25:12;8.48;;;3.35;;
39140;SDS011;24875;48.436;10.298;2022-08-11T06:27:43;7.05;;;3.40;;
39140;SDS011;24875;48.436;10.298;2022-08-11T06:30:12;5.50;;;3.20;;
39140;SDS011;24875;48.436;10.298;2022-08-11T06:32:40;8.32;;;3.70;;
39140;SDS011;24875;48.436;10.298;2022-08-11T06:35:14;4.75;;;3.15;;
39140;SDS011;24875;48.436;10.298;2022-08-11T06:37:45;8.35;;;3.22;;
39140;SDS011;24875;48.436;10.298;2022-08-11T06:40:25;5.28;;;3.38;;
39140;SDS011;24875;48.436;10.298;2022-08-11T06:43:02;5.43;;;3.42;;
39140;SDS011;24875;48.436;10.298;2022-08-11T06:45:39;7.78;;;3.85;;
39140;SDS011;24875;48.436;10.298;2022-08-11T06:48:14;6.15;;;3.40;;
39140;SDS011;24875;48.436;10.298;2022-08-11T06:50:45;10.07;;;3.70;;
39140;SDS011;24875;48.436;10.298;2022-08-11T06:53:32;4.25;;;2.90;;
39140;SDS011;24875;48.436;10.298;2022-08-11T06:55:59;5.60;;;3.13;;
39140;SDS011;24875;48.436;10.298;2022-08-11T06:58:46;5.57;;;3.20;;
39140;SDS011;24875;48.436;10.298;2022-08-11T07:01:36;4.68;;;3.05;;
39140;SDS011;24875;48.436;10.298;2022-08-11T07:04:10;4.50;;;2.80;;
39140;SDS011;24875;48.436;10.298;2022-08-11T07:07:00;6.22;;;3.40;;
39140;SDS011;24875;48.436;10.298;2022-08-11T07:10:19;5.55;;;3.30;;
39140;SDS011;24875;48.436;10.298;2022-08-11T07:13:10;5.85;;;2.92;;
39140;SDS011;24875;48.436;10.298;2022-08-11T07:15:59;5.47;;;3.05;;
39140;SDS011;24875;48.436;10.298;2022-08-11T07:18:28;5.78;;;3.45;;
39140;SDS011;24875;48.436;10.298;2022-08-11T07:21:18;3.72;;;3.00;;
39140;SDS011;24875;48.436;10.298;2022-08-11T07:24:07;5.30;;;3.05;;
39140;SDS011;24875;48.436;10.298;2022-08-11T07:26:56;5.47;;;2.92;;
39140;SDS011;24875;48.436;10.298;2022-08-11T07:29:44;7.20;;;3.10;;
39140;SDS011;24875;48.436;10.298;2022-08-11T07:32:15;8.63;;;3.50;;
39140;SDS011;24875;48.436;10.298;2022-08-11T07:34:48;5.07;;;2.78;;
39140;SDS011;24875;48.436;10.298;2022-08-11T07:37:18;7.65;;;3.50;;
39140;SDS011;24875;48.436;10.298;2022-08-11T07:39:46;5.32;;;2.95;;
39140;SDS011;24875;48.436;10.298;2022-08-11T07:42:14;7.63;;;3.20;;
39140;SDS011;24875;48.436;10.298;2022-08-11T07:44:45;5.68;;;3.30;;
39140;SDS011;24875;48.436;10.298;2022-08-11T07:47:31;3.95;;;3.00;;
39140;SDS011;24875;48.436;10.298;2022-08-11T07:50:17;6.20;;;3.35;;
39140;SDS011;24875;48.436;10.298;2022-08-11T07:53:02;4.30;;;3.05;;
39140;SDS011;24875;48.436;10.298;2022-08-11T07:55:29;5.47;;;3.15;;
39140;SDS011;24875;48.436;10.298;2022-08-11T07:57:58;3.90;;;2.75;;
39140;SDS011;24875;48.436;10.298;2022-08-11T08:00:45;4.18;;;2.83;;
39140;SDS011;24875;48.436;10.298;2022-08-11T08:03:33;4.85;;;2.80;;
39140;SDS011;24875;48.436;10.298;2022-08-11T08:06:17;4.78;;;2.80;;
39140;SDS011;24875;48.436;10.298;2022-08-11T08:09:02;5.55;;;2.67;;
39140;SDS011;24875;48.436;10.298;2022-08-11T08:11:47;5.85;;;2.58;;
39140;SDS011;24875;48.436;10.298;2022-08-11T08:14:32;4.97;;;2.40;;
39140;SDS011;24875;48.436;10.298;2022-08-11T08:17:17;3.67;;;2.63;;
39140;SDS011;24875;48.436;10.298;2022-08-11T08:20:04;3.75;;;2.70;;
39140;SDS011;24875;48.436;10.298;2022-08-11T08:22:31;5.03;;;2.67;;
39140;SDS011;24875;48.436;10.298;2022-08-11T08:25:00;3.88;;;2.83;;
39140;SDS011;24875;48.436;10.298;2022-08-11T08:27:27;6.63;;;2.58;;
39140;SDS011;24875;48.436;10.298;2022-08-11T08:29:54;3.80;;;2.63;;
39140;SDS011;24875;48.436;10.298;2022-08-11T08:32:40;7.38;;;2.55;;
39140;SDS011;24875;48.436;10.298;2022-08-11T08:35:10;6.93;;;3.03;;
39140;SDS011;24875;48.436;10.298;2022-08-11T08:37:37;3.65;;;2.60;;
39140;SDS011;24875;48.436;10.298;2022-08-11T08:40:05;7.05;;;2.63;;
39140;SDS011;24875;48.436;10.298;2022-08-11T08:42:34;3.55;;;2.50;;
39140;SDS011;24875;48.436;10.298;2022-08-11T08:45:05;4.72;;;2.42;;
39140;SDS011;24875;48.436;10.298;2022-08-11T08:47:34;5.55;;;2.75;;
39140;SDS011;24875;48.436;10.298;2022-08-11T08:50:03;5.90;;;2.65;;
39140;SDS011;24875;48.436;10.298;2022-08-11T08:52:34;4.72;;;2.58;;
39140;SDS011;24875;48.436;10.298;2022-08-11T08:55:05;10.00;;;2.47;;
39140;SDS011;24875;48.436;10.298;2022-08-11T08:57:35;5.28;;;2.63;;
39140;SDS011;24875;48.436;10.298;2022-08-11T09:00:02;5.25;;;2.72;;
39140;SDS011;24875;48.436;10.298;2022-08-11T09:02:30;3.58;;;2.72;;
39140;SDS011;24875;48.436;10.298;2022-08-11T09:04:57;12.38;;;3.20;;
39140;SDS011;24875;48.436;10.298;2022-08-11T09:07:25;6.97;;;3.35;;
39140;SDS011;24875;48.436;10.298;2022-08-11T09:09:56;5.10;;;2.75;;
39140;SDS011;24875;48.436;10.298;2022-08-11T09:12:25;2.97;;;2.30;;
39140;SDS011;24875;48.436;10.298;2022-08-11T09:14:52;4.03;;;2.78;;
39140;SDS011;24875;48.436;10.298;2022-08-11T09:17:27;8.63;;;2.63;;
39140;SDS011;24875;48.436;10.298;2022-08-11T09:19:57;5.35;;;2.40;;
39140;SDS011;24875;48.436;10.298;2022-08-11T09:22:25;6.57;;;2.67;;
39140;SDS011;24875;48.436;10.298;2022-08-11T09:25:11;3.50;;;2.30;;
39140;SDS011;24875;48.436;10.298;2022-08-11T09:27:56;4.32;;;2.35;;
39140;SDS011;24875;48.436;10.298;2022-08-11T09:30:23;3.28;;;2.33;;
39140;SDS011;24875;48.436;10.298;2022-08-11T09:32:51;5.88;;;2.72;;
39140;SDS011;24875;48.436;10.298;2022-08-11T09:35:22;2.88;;;2.35;;
39140;SDS011;24875;48.436;10.298;2022-08-11T09:37:50;3.03;;;2.28;;
39140;SDS011;24875;48.436;10.298;2022-08-11T09:40:37;3.53;;;2.40;;
39140;SDS011;24875;48.436;10.298;2022-08-11T09:43:05;5.65;;;2.55;;
39140;SDS011;24875;48.436;10.298;2022-08-11T09:45:53;4.15;;;2.22;;
39140;SDS011;24875;48.436;10.298;2022-08-11T09:48:23;6.47;;;2.40;;
39140;SDS011;24875;48.436;10.298;2022-08-11T09:50:51;8.07;;;2.20;;
39140;SDS011;24875;48.436;10.298;2022-08-11T09:53:20;3.08;;;2.10;;
39140;SDS011;24875;48.436;10.298;2022-08-11T09:55:50;4.90;;;2.30;;
39140;SDS011;24875;48.436;10.298;2022-08-11T09:58:17;3.35;;;2.05;;
39140;SDS011;24875;48.436;10.298;2022-08-11T10:00:46;6.40;;;2.58;;
39140;SDS011;24875;48.436;10.298;2022-08-11T10:03:15;4.88;;;2.78;;
39140;SDS011;24875;48.436;10.298;2022-08-11T10:05:43;3.22;;;2.47;;
39140;SDS011;24875;48.436;10.298;2022-08-11T10:08:30;4.63;;;2.30;;
39140;SDS011;24875;48.436;10.298;2022-08-11T10:10:59;5.55;;;2.30;;
39140;SDS011;24875;48.436;10.298;2022-08-11T10:13:29;7.60;;;2.78;;
39140;SDS011;24875;48.436;10.298;2022-08-11T10:16:00;2.65;;;1.85;;
39140;SDS011;24875;48.436;10.298;2022-08-11T10:18:32;3.30;;;2.35;;
39140;SDS011;24875;48.436;10.298;2022-08-11T10:21:08;4.38;;;2.28;;
39140;SDS011;24875;48.436;10.298;2022-08-11T10:23:36;3.75;;;2.30;;
39140;SDS011;24875;48.436;10.298;2022-08-11T10:26:23;5.07;;;2.28;;
39140;SDS011;24875;48.436;10.298;2022-08-11T10:29:18;9.88;;;2.30;;
39140;SDS011;24875;48.436;10.298;2022-08-11T10:32:03;5.53;;;2.40;;
39140;SDS011;24875;48.436;10.298;2022-08-11T10:34:49;3.95;;;2.00;;
39140;SDS011;24875;48.436;10.298;2022-08-11T10:37:16;3.40;;;1.98;;
39140;SDS011;24875;48.436;10.298;2022-08-11T10:39:45;4.00;;;2.25;;
39140;SDS011;24875;48.436;10.298;2022-08-11T10:42:13;2.58;;;2.30;;
39140;SDS011;24875;48.436;10.298;2022-08-11T10:44:59;4.53;;;1.92;;
39140;SDS011;24875;48.436;10.298;2022-08-11T10:47:49;4.72;;;2.30;;
39140;SDS011;24875;48.436;10.298;2022-08-11T10:50:15;3.63;;;1.95;;
39140;SDS011;24875;48.436;10.298;2022-08-11T10:53:00;3.33;;;1.98;;
39140;SDS011;24875;48.436;10.298;2022-08-11T10:55:46;3.35;;;2.17;;
39140;SDS011;24875;48.436;10.298;2022-08-11T10:58:32;4.75;;;1.80;;
39140;SDS011;24875;48.436;10.298;2022-08-11T11:01:10;5.13;;;1.90;;
39140;SDS011;24875;48.436;10.298;2022-08-11T11:03:38;2.97;;;2.00;;
39140;SDS011;24875;48.436;10.298;2022-08-11T11:06:07;5.00;;;2.13;;
39140;SDS011;24875;48.436;10.298;2022-08-11T11:08:44;5.38;;;2.00;;
39140;SDS011;24875;48.436;10.298;2022-08-11T11:11:19;5.53;;;1.98;;
39140;SDS011;24875;48.436;10.298;2022-08-11T11:13:49;4.05;;;2.30;;
39140;SDS011;24875;48.436;10.298;2022-08-11T11:16:35;3.60;;;2.10;;
39140;SDS011;24875;48.436;10.298;2022-08-11T11:19:22;3.08;;;1.80;;
39140;SDS011;24875;48.436;10.298;2022-08-11T11:21:51;3.15;;;1.85;;
39140;SDS011;24875;48.436;10.298;2022-08-11T11:24:41;2.85;;;1.77;;
39140;SDS011;24875;48.436;10.298;2022-08-11T11:27:19;5.60;;;2.10;;
39140;SDS011;24875;48.436;10.298;2022-08-11T11:29:58;2.63;;;2.05;;
39140;SDS011;24875;48.436;10.298;2022-08-11T11:32:32;3.28;;;2.00;;
39140;SDS011;24875;48.436;10.298;2022-08-11T11:35:15;4.03;;;2.08;;
39140;SDS011;24875;48.436;10.298;2022-08-11T11:37:52;6.07;;;2.10;;
39140;SDS011;24875;48.436;10.298;2022-08-11T11:40:20;3.75;;;1.73;;
39140;SDS011;24875;48.436;10.298;2022-08-11T11:42:48;2.10;;;1.85;;
39140;SDS011;24875;48.436;10.298;2022-08-11T11:45:18;3.92;;;2.13;;
39140;SDS011;24875;48.436;10.298;2022-08-11T11:47:46;5.43;;;1.90;;
39140;SDS011;24875;48.436;10.298;2022-08-11T11:50:16;3.40;;;2.17;;
39140;SDS011;24875;48.436;10.298;2022-08-11T11:52:48;2.83;;;2.00;;
39140;SDS011;24875;48.436;10.298;2022-08-11T11:55:16;5.35;;;1.95;;
39140;SDS011;24875;48.436;10.298;2022-08-11T11:57:42;2.38;;;1.80;;
39140;SDS011;24875;48.436;10.298;2022-08-11T12:00:34;3.80;;;1.90;;
39140;SDS011;24875;48.436;10.298;2022-08-11T12:03:18;2.83;;;1.95;;
39140;SDS011;24875;48.436;10.298;2022-08-11T12:05:46;3.00;;;1.85;;
39140;SDS011;24875;48.436;10.298;2022-08-11T12:08:15;5.05;;;1.80;;
39140;SDS011;24875;48.436;10.298;2022-08-11T12:10:43;3.90;;;2.03;;
39140;SDS011;24875;48.436;10.298;2022-08-11T12:13:12;2.92;;;1.88;;
39140;SDS011;24875;48.436;10.298;2022-08-11T12:15:59;2.22;;;1.70;;
39140;SDS011;24875;48.436;10.298;2022-08-11T12:18:28;2.65;;;1.90;;
39140;SDS011;24875;48.436;10.298;2022-08-11T12:20:57;2.38;;;1.80;;
39140;SDS011;24875;48.436;10.298;2022-08-11T12:23:25;5.22;;;1.88;;
39140;SDS011;24875;48.436;10.298;2022-08-11T12:26:09;3.78;;;1.90;;
39140;SDS011;24875;48.436;10.298;2022-08-11T12:28:58;3.50;;;1.80;;
39140;SDS011;24875;48.436;10.298;2022-08-11T12:31:26;4.40;;;1.85;;
39140;SDS011;24875;48.436;10.298;2022-08-11T12:33:58;2.42;;;1.80;;
39140;SDS011;24875;48.436;10.298;2022-08-11T12:36:26;4.90;;;1.75;;
39140;SDS011;24875;48.436;10.298;2022-08-11T12:38:53;2.95;;;1.80;;
39140;SDS011;24875;48.436;10.298;2022-08-11T12:41:20;2.40;;;1.75;;
39140;SDS011;24875;48.436;10.298;2022-08-11T12:44:06;6.97;;;1.88;;
39140;SDS011;24875;48.436;10.298;2022-08-11T12:47:02;3.17;;;1.70;;
39140;SDS011;24875;48.436;10.298;2022-08-11T12:49:31;4.20;;;2.10;;
39140;SDS011;24875;48.436;10.298;2022-08-11T12:52:20;1.98;;;1.73;;
39140;SDS011;24875;48.436;10.298;2022-08-11T12:54:58;4.03;;;2.00;;
39140;SDS011;24875;48.436;10.298;2022-08-11T12:57:29;2.33;;;1.75;;
39140;SDS011;24875;48.436;10.298;2022-08-11T13:00:16;4.47;;;2.10;;
39140;SDS011;24875;48.436;10.298;2022-08-11T13:03:04;5.05;;;1.83;;
39140;SDS011;24875;48.436;10.298;2022-08-11T13:05:51;3.47;;;1.65;;
39140;SDS011;24875;48.436;10.298;2022-08-11T13:08:20;5.43;;;2.10;;
39140;SDS011;24875;48.436;10.298;2022-08-11T13:10:49;2.30;;;1.77;;
39140;SDS011;24875;48.436;10.298;2022-08-11T13:13:34;2.53;;;1.58;;
39140;SDS011;24875;48.436;10.298;2022-08-11T13:16:03;2.80;;;1.70;;
39140;SDS011;24875;48.436;10.298;2022-08-11T13:18:32;4.72;;;1.90;;
39140;SDS011;24875;48.436;10.298;2022-08-11T13:20:59;2.70;;;1.70;;
39140;SDS011;24875;48.436;10.298;2022-08-11T13:23:27;2.28;;;1.70;;
39140;SDS011;24875;48.436;10.298;2022-08-11T13:25:54;3.55;;;1.80;;
39140;SDS011;24875;48.436;10.298;2022-08-11T13:28:21;6.60;;;1.77;;
39140;SDS011;24875;48.436;10.298;2022-08-11T13:30:49;4.57;;;2.00;;
39140;SDS011;24875;48.436;10.298;2022-08-11T13:33:35;4.53;;;1.80;;
39140;SDS011;24875;48.436;10.298;2022-08-11T13:36:06;4.63;;;1.52;;
39140;SDS011;24875;48.436;10.298;2022-08-11T13:38:34;4.82;;;1.88;;
39140;SDS011;24875;48.436;10.298;2022-08-11T13:41:01;2.30;;;1.55;;
39140;SDS011;24875;48.436;10.298;2022-08-11T13:43:49;7.38;;;1.77;;
39140;SDS011;24875;48.436;10.298;2022-08-11T13:46:17;2.60;;;1.88;;
39140;SDS011;24875;48.436;10.298;2022-08-11T13:48:49;1.65;;;1.40;;
39140;SDS011;24875;48.436;10.298;2022-08-11T13:51:18;3.28;;;1.83;;
39140;SDS011;24875;48.436;10.298;2022-08-11T13:53:59;4.68;;;2.00;;
39140;SDS011;24875;48.436;10.298;2022-08-11T13:56:27;2.28;;;1.45;;
39140;SDS011;24875;48.436;10.298;2022-08-11T13:58:54;3.95;;;1.80;;
39140;SDS011;24875;48.436;10.298;2022-08-11T14:01:23;3.72;;;1.60;;
39140;SDS011;24875;48.436;10.298;2022-08-11T14:03:54;2.25;;;1.75;;
39140;SDS011;24875;48.436;10.298;2022-08-11T14:06:28;5.03;;;1.90;;
39140;SDS011;24875;48.436;10.298;2022-08-11T14:08:55;2.80;;;1.95;;
39140;SDS011;24875;48.436;10.298;2022-08-11T14:11:23;3.53;;;1.70;;
39140;SDS011;24875;48.436;10.298;2022-08-11T14:14:09;4.88;;;1.90;;
39140;SDS011;24875;48.436;10.298;2022-08-11T14:16:41;2.42;;;1.70;;
39140;SDS011;24875;48.436;10.298;2022-08-11T14:19:11;3.92;;;1.95;;
39140;SDS011;24875;48.436;10.298;2022-08-11T14:21:40;6.35;;;1.50;;
39140;SDS011;24875;48.436;10.298;2022-08-11T14:24:25;5.07;;;1.77;;
39140;SDS011;24875;48.436;10.298;2022-08-11T14:26:53;2.35;;;1.45;;
39140;SDS011;24875;48.436;10.298;2022-08-11T14:29:21;4.00;;;1.70;;
39140;SDS011;24875;48.436;10.298;2022-08-11T14:31:52;4.13;;;1.90;;
39140;SDS011;24875;48.436;10.298;2022-08-11T14:34:22;2.38;;;1.60;;
39140;SDS011;24875;48.436;10.298;2022-08-11T14:36:54;1.48;;;1.33;;
39140;SDS011;24875;48.436;10.298;2022-08-11T14:39:23;3.58;;;1.70;;
39140;SDS011;24875;48.436;10.298;2022-08-11T14:41:52;2.60;;;1.60;;
39140;SDS011;24875;48.436;10.298;2022-08-11T14:44:38;2.20;;;1.77;;
39140;SDS011;24875;48.436;10.298;2022-08-11T14:47:25;4.38;;;1.60;;
39140;SDS011;24875;48.436;10.298;2022-08-11T14:49:56;4.72;;;1.70;;
39140;SDS011;24875;48.436;10.298;2022-08-11T14:52:24;3.15;;;1.67;;
39140;SDS011;24875;48.436;10.298;2022-08-11T14:54:52;3.20;;;1.67;;
39140;SDS011;24875;48.436;10.298;2022-08-11T14:57:38;2.88;;;1.50;;
39140;SDS011;24875;48.436;10.298;2022-08-11T15:00:08;4.15;;;1.50;;
39140;SDS011;24875;48.436;10.298;2022-08-11T15:02:37;4.32;;;1.40;;
39140;SDS011;24875;48.436;10.298;2022-08-11T15:05:24;4.30;;;1.38;;
39140;SDS011;24875;48.436;10.298;2022-08-11T15:07:52;2.33;;;1.58;;
39140;SDS011;24875;48.436;10.298;2022-08-11T15:10:20;2.65;;;1.58;;
39140;SDS011;24875;48.436;10.298;2022-08-11T15:12:47;4.13;;;1.70;;
39140;SDS011;24875;48.436;10.298;2022-08-11T15:15:15;3.28;;;1.50;;
39140;SDS011;24875;48.436;10.298;2022-08-11T15:18:00;2.83;;;1.70;;
39140;SDS011;24875;48.436;10.298;2022-08-11T15:20:31;5.10;;;1.92;;
39140;SDS011;24875;48.436;10.298;2022-08-11T15:23:21;2.67;;;1.70;;
39140;SDS011;24875;48.436;10.298;2022-08-11T15:26:06;2.38;;;1.73;;
39140;SDS011;24875;48.436;10.298;2022-08-11T15:28:36;4.03;;;1.65;;
39140;SDS011;24875;48.436;10.298;2022-08-11T15:31:23;4.38;;;1.90;;
39140;SDS011;24875;48.436;10.298;2022-08-11T15:34:11;3.65;;;1.45;;
39140;SDS011;24875;48.436;10.298;2022-08-11T15:37:01;2.42;;;1.40;;
39140;SDS011;24875;48.436;10.298;2022-08-11T15:39:50;3.08;;;1.48;;
39140;SDS011;24875;48.436;10.298;2022-08-11T15:42:40;2.15;;;1.40;;
39140;SDS011;24875;48.436;10.298;2022-08-11T15:45:29;2.85;;;1.63;;
39140;SDS011;24875;48.436;10.298;2022-08-11T15:48:13;2.30;;;1.45;;
39140;SDS011;24875;48.436;10.298;2022-08-11T15:50:45;3.40;;;1.50;;
39140;SDS011;24875;48.436;10.298;2022-08-11T15:53:19;3.25;;;1.40;;
39140;SDS011;24875;48.436;10.298;2022-08-11T15:55:52;3.38;;;1.45;;
39140;SDS011;24875;48.436;10.298;2022-08-11T15:58:20;2.10;;;1.60;;
39140;SDS011;24875;48.436;10.298;2022-08-11T16:01:08;2.33;;;1.50;;
39140;SDS011;24875;48.436;10.298;2022-08-11T16:03:55;2.28;;;1.30;;
39140;SDS011;24875;48.436;10.298;2022-08-11T16:06:38;5.43;;;1.60;;
39140;SDS011;24875;48.436;10.298;2022-08-11T16:09:10;1.77;;;1.42;;
39140;SDS011;24875;48.436;10.298;2022-08-11T16:11:40;3.65;;;1.30;;
39140;SDS011;24875;48.436;10.298;2022-08-11T16:14:08;3.90;;;1.27;;
39140;SDS011;24875;48.436;10.298;2022-08-11T16:16:54;2.00;;;1.33;;
39140;SDS011;24875;48.436;10.298;2022-08-11T16:19:24;2.28;;;1.20;;
39140;SDS011;24875;48.436;10.298;2022-08-11T16:21:53;2.35;;;1.10;;